sensor_id;sensor_type;location;lat;lon;timestamp;P1;durP1;ratioP1;P2;durP2;ratioP2
25439;SDS011;13365;52.208;5.488;2023-02-22T00:00:48;23.27;;;8.85;;
25439;SDS011;13365;52.208;5.488;2023-02-22T00:05:42;20.20;;;8.48;;
25439;SDS011;13365;52.208;5.488;2023-02-22T00:08:11;18.88;;;7.30;;
25439;SDS011;13365;52.208;5.488;2023-02-22T00:10:38;16.60;;;7.55;;
25439;SDS011;13365;52.208;5.488;2023-02-22T00:13:04;15.15;;;7.32;;
25439;SDS011;13365;52.208;5.488;2023-02-22T00:15:31;13.02;;;7.38;;
25439;SDS011;13365;52.208;5.488;2023-02-22T00:17:57;14.77;;;7.05;;
25439;SDS011;13365;52.208;5.488;2023-02-22T00:20:23;16.63;;;7.72;;
25439;SDS011;13365;52.208;5.488;2023-02-22T00:22:49;14.98;;;7.20;;
25439;SDS011;13365;52.208;5.488;2023-02-22T00:25:16;24.77;;;7.75;;
25439;SDS011;13365;52.208;5.488;2023-02-22T00:27:44;16.13;;;7.75;;
25439;SDS011;13365;52.208;5.488;2023-02-22T00:30:16;12.93;;;6.28;;
25439;SDS011;13365;52.208;5.488;2023-02-22T00:32:44;19.90;;;7.47;;
25439;SDS011;13365;52.208;5.488;2023-02-22T00:35:11;15.35;;;7.53;;
25439;SDS011;13365;52.208;5.488;2023-02-22T00:37:41;13.70;;;5.90;;
25439;SDS011;13365;52.208;5.488;2023-02-22T00:40:08;14.85;;;6.90;;
25439;SDS011;13365;52.208;5.488;2023-02-22T00:42:35;18.17;;;7.68;;
25439;SDS011;13365;52.208;5.488;2023-02-22T00:45:01;14.05;;;6.28;;
25439;SDS011;13365;52.208;5.488;2023-02-22T00:47:27;18.75;;;7.82;;
25439;SDS011;13365;52.208;5.488;2023-02-22T00:49:54;15.70;;;6.32;;
25439;SDS011;13365;52.208;5.488;2023-02-22T00:52:20;14.43;;;6.35;;
25439;SDS011;13365;52.208;5.488;2023-02-22T00:54:45;18.55;;;7.40;;
25439;SDS011;13365;52.208;5.488;2023-02-22T00:57:11;15.50;;;6.97;;
25439;SDS011;13365;52.208;5.488;2023-02-22T00:59:37;17.83;;;7.43;;
25439;SDS011;13365;52.208;5.488;2023-02-22T01:02:02;19.00;;;6.97;;
25439;SDS011;13365;52.208;5.488;2023-02-22T01:04:28;14.50;;;6.45;;
25439;SDS011;13365;52.208;5.488;2023-02-22T01:06:54;13.90;;;6.10;;
25439;SDS011;13365;52.208;5.488;2023-02-22T01:09:20;15.50;;;6.97;;
25439;SDS011;13365;52.208;5.488;2023-02-22T01:11:46;15.45;;;6.70;;
25439;SDS011;13365;52.208;5.488;2023-02-22T01:14:12;12.85;;;5.35;;
25439;SDS011;13365;52.208;5.488;2023-02-22T01:16:38;10.63;;;5.70;;
25439;SDS011;13365;52.208;5.488;2023-02-22T01:19:03;15.90;;;6.95;;
25439;SDS011;13365;52.208;5.488;2023-02-22T01:21:30;12.57;;;5.72;;
25439;SDS011;13365;52.208;5.488;2023-02-22T01:23:56;13.98;;;6.97;;
25439;SDS011;13365;52.208;5.488;2023-02-22T01:26:21;11.43;;;5.45;;
25439;SDS011;13365;52.208;5.488;2023-02-22T01:28:47;15.13;;;5.88;;
25439;SDS011;13365;52.208;5.488;2023-02-22T01:31:12;12.68;;;6.05;;
25439;SDS011;13365;52.208;5.488;2023-02-22T01:33:39;13.02;;;6.07;;
25439;SDS011;13365;52.208;5.488;2023-02-22T01:36:05;10.82;;;4.85;;
25439;SDS011;13365;52.208;5.488;2023-02-22T01:38:35;10.13;;;5.60;;
25439;SDS011;13365;52.208;5.488;2023-02-22T01:41:01;11.02;;;5.05;;
25439;SDS011;13365;52.208;5.488;2023-02-22T01:43:30;14.38;;;6.57;;
25439;SDS011;13365;52.208;5.488;2023-02-22T01:46:15;13.75;;;6.03;;
25439;SDS011;13365;52.208;5.488;2023-02-22T01:48:47;14.00;;;6.20;;
25439;SDS011;13365;52.208;5.488;2023-02-22T01:51:17;13.38;;;6.78;;
25439;SDS011;13365;52.208;5.488;2023-02-22T01:53:54;15.48;;;6.85;;
25439;SDS011;13365;52.208;5.488;2023-02-22T01:56:26;13.27;;;6.25;;
25439;SDS011;13365;52.208;5.488;2023-02-22T01:59:11;8.82;;;4.88;;
25439;SDS011;13365;52.208;5.488;2023-02-22T02:01:38;10.13;;;5.50;;
25439;SDS011;13365;52.208;5.488;2023-02-22T02:04:09;14.70;;;6.40;;
25439;SDS011;13365;52.208;5.488;2023-02-22T02:06:39;8.38;;;4.10;;
25439;SDS011;13365;52.208;5.488;2023-02-22T02:09:12;14.77;;;6.60;;
25439;SDS011;13365;52.208;5.488;2023-02-22T02:11:48;14.07;;;6.35;;
25439;SDS011;13365;52.208;5.488;2023-02-22T02:14:14;11.88;;;5.82;;
25439;SDS011;13365;52.208;5.488;2023-02-22T02:16:41;12.98;;;5.35;;
25439;SDS011;13365;52.208;5.488;2023-02-22T02:27:57;12.02;;;6.18;;
25439;SDS011;13365;52.208;5.488;2023-02-22T02:33:33;16.02;;;7.00;;
25439;SDS011;13365;52.208;5.488;2023-02-22T02:41:46;17.13;;;7.18;;
25439;SDS011;13365;52.208;5.488;2023-02-22T02:44:30;19.10;;;7.93;;
25439;SDS011;13365;52.208;5.488;2023-02-22T02:47:04;15.38;;;7.18;;
25439;SDS011;13365;52.208;5.488;2023-02-22T02:49:39;13.13;;;6.35;;
25439;SDS011;13365;52.208;5.488;2023-02-22T02:52:08;14.30;;;6.10;;
25439;SDS011;13365;52.208;5.488;2023-02-22T02:54:36;14.43;;;7.38;;
25439;SDS011;13365;52.208;5.488;2023-02-22T02:57:03;15.57;;;6.70;;
25439;SDS011;13365;52.208;5.488;2023-02-22T02:59:31;14.23;;;6.28;;
25439;SDS011;13365;52.208;5.488;2023-02-22T03:10:02;17.20;;;7.40;;
25439;SDS011;13365;52.208;5.488;2023-02-22T03:12:53;16.52;;;7.25;;
25439;SDS011;13365;52.208;5.488;2023-02-22T03:18:36;18.67;;;7.85;;
25439;SDS011;13365;52.208;5.488;2023-02-22T03:23:49;16.58;;;7.18;;
25439;SDS011;13365;52.208;5.488;2023-02-22T03:26:40;16.73;;;7.88;;
25439;SDS011;13365;52.208;5.488;2023-02-22T03:29:09;16.50;;;7.28;;
25439;SDS011;13365;52.208;5.488;2023-02-22T03:31:38;13.88;;;6.15;;
25439;SDS011;13365;52.208;5.488;2023-02-22T03:34:14;16.75;;;7.30;;
25439;SDS011;13365;52.208;5.488;2023-02-22T03:36:46;20.38;;;9.10;;
25439;SDS011;13365;52.208;5.488;2023-02-22T03:39:16;24.05;;;8.63;;
25439;SDS011;13365;52.208;5.488;2023-02-22T03:41:44;15.65;;;7.60;;
25439;SDS011;13365;52.208;5.488;2023-02-22T03:44:14;20.02;;;8.00;;
25439;SDS011;13365;52.208;5.488;2023-02-22T03:46:44;16.65;;;7.68;;
25439;SDS011;13365;52.208;5.488;2023-02-22T03:49:26;18.73;;;8.27;;
25439;SDS011;13365;52.208;5.488;2023-02-22T03:51:59;17.73;;;8.73;;
25439;SDS011;13365;52.208;5.488;2023-02-22T03:54:25;23.88;;;8.90;;
25439;SDS011;13365;52.208;5.488;2023-02-22T03:56:55;13.80;;;7.47;;
25439;SDS011;13365;52.208;5.488;2023-02-22T03:59:24;19.95;;;8.23;;
25439;SDS011;13365;52.208;5.488;2023-02-22T04:01:52;16.42;;;7.60;;
25439;SDS011;13365;52.208;5.488;2023-02-22T04:04:18;23.15;;;10.35;;
25439;SDS011;13365;52.208;5.488;2023-02-22T04:06:45;17.20;;;7.07;;
25439;SDS011;13365;52.208;5.488;2023-02-22T04:09:12;18.80;;;8.52;;
25439;SDS011;13365;52.208;5.488;2023-02-22T04:11:38;22.20;;;9.20;;
25439;SDS011;13365;52.208;5.488;2023-02-22T04:14:04;19.25;;;7.80;;
25439;SDS011;13365;52.208;5.488;2023-02-22T04:16:29;18.85;;;9.02;;
25439;SDS011;13365;52.208;5.488;2023-02-22T04:18:55;21.88;;;7.10;;
25439;SDS011;13365;52.208;5.488;2023-02-22T04:21:20;23.00;;;9.05;;
25439;SDS011;13365;52.208;5.488;2023-02-22T04:23:46;23.25;;;8.30;;
25439;SDS011;13365;52.208;5.488;2023-02-22T04:26:12;18.83;;;8.18;;
25439;SDS011;13365;52.208;5.488;2023-02-22T04:28:37;19.23;;;8.32;;
25439;SDS011;13365;52.208;5.488;2023-02-22T04:31:03;18.98;;;8.40;;
25439;SDS011;13365;52.208;5.488;2023-02-22T04:33:28;25.08;;;9.85;;
25439;SDS011;13365;52.208;5.488;2023-02-22T04:35:54;16.25;;;7.90;;
25439;SDS011;13365;52.208;5.488;2023-02-22T04:38:21;21.95;;;9.35;;
25439;SDS011;13365;52.208;5.488;2023-02-22T04:40:49;20.80;;;8.77;;
25439;SDS011;13365;52.208;5.488;2023-02-22T04:43:15;17.55;;;7.55;;
25439;SDS011;13365;52.208;5.488;2023-02-22T04:45:41;22.73;;;8.75;;
25439;SDS011;13365;52.208;5.488;2023-02-22T04:48:07;15.75;;;8.27;;
25439;SDS011;13365;52.208;5.488;2023-02-22T04:50:33;19.63;;;9.23;;
25439;SDS011;13365;52.208;5.488;2023-02-22T04:53:00;19.40;;;7.90;;
25439;SDS011;13365;52.208;5.488;2023-02-22T04:55:25;21.73;;;9.43;;
25439;SDS011;13365;52.208;5.488;2023-02-22T04:57:52;20.77;;;7.35;;
25439;SDS011;13365;52.208;5.488;2023-02-22T05:00:18;24.38;;;10.25;;
25439;SDS011;13365;52.208;5.488;2023-02-22T05:02:47;18.05;;;7.95;;
25439;SDS011;13365;52.208;5.488;2023-02-22T05:05:14;22.70;;;8.13;;
25439;SDS011;13365;52.208;5.488;2023-02-22T05:07:45;23.00;;;8.85;;
25439;SDS011;13365;52.208;5.488;2023-02-22T05:10:11;19.50;;;9.35;;
25439;SDS011;13365;52.208;5.488;2023-02-22T05:12:38;24.38;;;9.50;;
25439;SDS011;13365;52.208;5.488;2023-02-22T05:15:04;23.40;;;9.10;;
25439;SDS011;13365;52.208;5.488;2023-02-22T05:17:32;21.52;;;9.63;;
25439;SDS011;13365;52.208;5.488;2023-02-22T05:19:58;27.13;;;9.88;;
25439;SDS011;13365;52.208;5.488;2023-02-22T05:22:24;19.67;;;8.80;;
25439;SDS011;13365;52.208;5.488;2023-02-22T05:24:49;23.20;;;9.15;;
25439;SDS011;13365;52.208;5.488;2023-02-22T05:27:18;26.85;;;10.68;;
25439;SDS011;13365;52.208;5.488;2023-02-22T05:29:43;17.73;;;8.95;;
25439;SDS011;13365;52.208;5.488;2023-02-22T05:32:09;28.60;;;9.13;;
25439;SDS011;13365;52.208;5.488;2023-02-22T05:34:38;21.50;;;9.90;;
25439;SDS011;13365;52.208;5.488;2023-02-22T05:37:03;26.73;;;10.15;;
25439;SDS011;13365;52.208;5.488;2023-02-22T05:39:29;19.85;;;7.70;;
25439;SDS011;13365;52.208;5.488;2023-02-22T05:41:55;25.10;;;8.45;;
25439;SDS011;13365;52.208;5.488;2023-02-22T05:44:21;19.73;;;9.02;;
25439;SDS011;13365;52.208;5.488;2023-02-22T05:46:46;30.60;;;11.38;;
25439;SDS011;13365;52.208;5.488;2023-02-22T05:49:12;21.25;;;8.30;;
25439;SDS011;13365;52.208;5.488;2023-02-22T05:51:38;27.73;;;10.30;;
25439;SDS011;13365;52.208;5.488;2023-02-22T05:54:03;24.65;;;10.38;;
25439;SDS011;13365;52.208;5.488;2023-02-22T05:56:29;26.70;;;9.68;;
25439;SDS011;13365;52.208;5.488;2023-02-22T05:58:55;28.25;;;10.07;;
25439;SDS011;13365;52.208;5.488;2023-02-22T06:01:21;26.55;;;9.82;;
25439;SDS011;13365;52.208;5.488;2023-02-22T06:03:50;23.23;;;9.40;;
25439;SDS011;13365;52.208;5.488;2023-02-22T06:06:16;23.58;;;9.43;;
25439;SDS011;13365;52.208;5.488;2023-02-22T06:08:43;23.38;;;8.88;;
25439;SDS011;13365;52.208;5.488;2023-02-22T06:11:09;25.80;;;8.20;;
25439;SDS011;13365;52.208;5.488;2023-02-22T06:13:35;16.80;;;8.10;;
25439;SDS011;13365;52.208;5.488;2023-02-22T06:16:01;22.40;;;9.60;;
25439;SDS011;13365;52.208;5.488;2023-02-22T06:18:27;23.70;;;9.65;;
25439;SDS011;13365;52.208;5.488;2023-02-22T06:20:55;18.15;;;8.05;;
25439;SDS011;13365;52.208;5.488;2023-02-22T06:23:21;27.85;;;8.30;;
25439;SDS011;13365;52.208;5.488;2023-02-22T06:25:47;24.27;;;10.48;;
25439;SDS011;13365;52.208;5.488;2023-02-22T06:28:13;29.50;;;10.80;;
25439;SDS011;13365;52.208;5.488;2023-02-22T06:30:39;21.67;;;9.43;;
25439;SDS011;13365;52.208;5.488;2023-02-22T06:33:06;20.35;;;7.07;;
25439;SDS011;13365;52.208;5.488;2023-02-22T06:35:32;15.77;;;7.25;;
25439;SDS011;13365;52.208;5.488;2023-02-22T06:37:58;19.77;;;9.60;;
25439;SDS011;13365;52.208;5.488;2023-02-22T06:40:23;28.83;;;8.27;;
25439;SDS011;13365;52.208;5.488;2023-02-22T06:42:53;25.77;;;9.35;;
25439;SDS011;13365;52.208;5.488;2023-02-22T06:45:19;29.80;;;11.07;;
25439;SDS011;13365;52.208;5.488;2023-02-22T06:47:45;25.77;;;10.07;;
25439;SDS011;13365;52.208;5.488;2023-02-22T06:50:17;29.60;;;10.35;;
25439;SDS011;13365;52.208;5.488;2023-02-22T06:52:45;27.35;;;9.38;;
25439;SDS011;13365;52.208;5.488;2023-02-22T06:55:14;25.83;;;11.38;;
25439;SDS011;13365;52.208;5.488;2023-02-22T06:57:48;22.58;;;9.15;;
25439;SDS011;13365;52.208;5.488;2023-02-22T07:00:14;28.65;;;9.80;;
25439;SDS011;13365;52.208;5.488;2023-02-22T07:02:42;19.17;;;9.93;;
25439;SDS011;13365;52.208;5.488;2023-02-22T07:05:09;22.95;;;8.75;;
25439;SDS011;13365;52.208;5.488;2023-02-22T07:07:36;26.60;;;10.55;;
25439;SDS011;13365;52.208;5.488;2023-02-22T07:10:03;33.80;;;12.50;;
25439;SDS011;13365;52.208;5.488;2023-02-22T07:12:29;25.13;;;10.90;;
25439;SDS011;13365;52.208;5.488;2023-02-22T07:14:55;31.45;;;11.27;;
25439;SDS011;13365;52.208;5.488;2023-02-22T07:17:21;27.45;;;9.13;;
25439;SDS011;13365;52.208;5.488;2023-02-22T07:19:46;28.60;;;9.43;;
25439;SDS011;13365;52.208;5.488;2023-02-22T07:22:12;37.65;;;12.82;;
25439;SDS011;13365;52.208;5.488;2023-02-22T07:24:37;21.67;;;9.07;;
25439;SDS011;13365;52.208;5.488;2023-02-22T07:27:04;23.13;;;9.35;;
25439;SDS011;13365;52.208;5.488;2023-02-22T07:29:30;28.08;;;10.13;;
25439;SDS011;13365;52.208;5.488;2023-02-22T07:31:56;26.35;;;10.95;;
25439;SDS011;13365;52.208;5.488;2023-02-22T07:34:21;27.50;;;10.75;;
25439;SDS011;13365;52.208;5.488;2023-02-22T07:36:47;29.20;;;9.85;;
25439;SDS011;13365;52.208;5.488;2023-02-22T07:39:13;28.67;;;10.43;;
25439;SDS011;13365;52.208;5.488;2023-02-22T07:41:38;24.23;;;9.40;;
25439;SDS011;13365;52.208;5.488;2023-02-22T07:44:04;28.13;;;10.43;;
25439;SDS011;13365;52.208;5.488;2023-02-22T07:46:30;27.80;;;10.23;;
25439;SDS011;13365;52.208;5.488;2023-02-22T07:48:55;19.13;;;8.05;;
25439;SDS011;13365;52.208;5.488;2023-02-22T07:51:21;17.95;;;8.52;;
25439;SDS011;13365;52.208;5.488;2023-02-22T07:53:46;18.65;;;9.35;;
25439;SDS011;13365;52.208;5.488;2023-02-22T07:56:12;25.20;;;8.93;;
25439;SDS011;13365;52.208;5.488;2023-02-22T07:58:38;25.10;;;8.93;;
25439;SDS011;13365;52.208;5.488;2023-02-22T08:01:03;22.58;;;9.48;;
25439;SDS011;13365;52.208;5.488;2023-02-22T08:03:33;22.77;;;10.95;;
25439;SDS011;13365;52.208;5.488;2023-02-22T08:06:00;26.08;;;8.82;;
25439;SDS011;13365;52.208;5.488;2023-02-22T08:08:27;25.10;;;10.40;;
25439;SDS011;13365;52.208;5.488;2023-02-22T08:10:52;26.73;;;11.57;;
25439;SDS011;13365;52.208;5.488;2023-02-22T08:13:20;27.83;;;10.55;;
25439;SDS011;13365;52.208;5.488;2023-02-22T08:15:47;22.63;;;10.65;;
25439;SDS011;13365;52.208;5.488;2023-02-22T08:18:16;21.40;;;9.00;;
25439;SDS011;13365;52.208;5.488;2023-02-22T08:20:43;31.38;;;12.63;;
25439;SDS011;13365;52.208;5.488;2023-02-22T08:23:11;27.10;;;10.43;;
25439;SDS011;13365;52.208;5.488;2023-02-22T08:25:38;22.70;;;9.52;;
25439;SDS011;13365;52.208;5.488;2023-02-22T08:28:05;22.25;;;9.18;;
25439;SDS011;13365;52.208;5.488;2023-02-22T08:30:35;19.85;;;8.65;;
25439;SDS011;13365;52.208;5.488;2023-02-22T08:33:02;25.48;;;10.00;;
25439;SDS011;13365;52.208;5.488;2023-02-22T08:35:29;23.50;;;9.52;;
25439;SDS011;13365;52.208;5.488;2023-02-22T08:38:04;32.63;;;12.13;;
25439;SDS011;13365;52.208;5.488;2023-02-22T08:40:32;27.58;;;10.00;;
25439;SDS011;13365;52.208;5.488;2023-02-22T08:43:00;27.17;;;10.13;;
25439;SDS011;13365;52.208;5.488;2023-02-22T08:45:26;21.67;;;9.65;;
25439;SDS011;13365;52.208;5.488;2023-02-22T08:47:52;20.25;;;8.65;;
25439;SDS011;13365;52.208;5.488;2023-02-22T08:50:25;31.13;;;12.32;;
25439;SDS011;13365;52.208;5.488;2023-02-22T08:52:54;26.70;;;11.80;;
25439;SDS011;13365;52.208;5.488;2023-02-22T08:55:22;25.15;;;9.90;;
25439;SDS011;13365;52.208;5.488;2023-02-22T08:57:50;24.17;;;11.18;;
25439;SDS011;13365;52.208;5.488;2023-02-22T09:00:16;25.85;;;10.90;;
25439;SDS011;13365;52.208;5.488;2023-02-22T09:02:43;21.75;;;8.40;;
25439;SDS011;13365;52.208;5.488;2023-02-22T09:05:09;25.40;;;9.82;;
25439;SDS011;13365;52.208;5.488;2023-02-22T09:07:35;23.73;;;9.73;;
25439;SDS011;13365;52.208;5.488;2023-02-22T09:10:00;27.38;;;11.07;;
25439;SDS011;13365;52.208;5.488;2023-02-22T09:12:26;25.70;;;10.80;;
25439;SDS011;13365;52.208;5.488;2023-02-22T09:14:51;22.52;;;8.85;;
25439;SDS011;13365;52.208;5.488;2023-02-22T09:17:17;26.67;;;9.57;;
25439;SDS011;13365;52.208;5.488;2023-02-22T09:19:42;23.63;;;10.55;;
25439;SDS011;13365;52.208;5.488;2023-02-22T09:22:09;19.20;;;8.68;;
25439;SDS011;13365;52.208;5.488;2023-02-22T09:24:35;23.55;;;9.38;;
25439;SDS011;13365;52.208;5.488;2023-02-22T09:27:01;16.50;;;7.55;;
25439;SDS011;13365;52.208;5.488;2023-02-22T09:29:28;21.33;;;9.80;;
25439;SDS011;13365;52.208;5.488;2023-02-22T09:31:54;23.42;;;9.45;;
25439;SDS011;13365;52.208;5.488;2023-02-22T09:34:23;28.23;;;10.60;;
25439;SDS011;13365;52.208;5.488;2023-02-22T09:36:53;18.73;;;8.52;;
25439;SDS011;13365;52.208;5.488;2023-02-22T09:39:21;20.48;;;8.38;;
25439;SDS011;13365;52.208;5.488;2023-02-22T09:44:28;22.10;;;10.40;;
25439;SDS011;13365;52.208;5.488;2023-02-22T09:47:04;19.75;;;7.70;;
25439;SDS011;13365;52.208;5.488;2023-02-22T09:49:38;18.40;;;9.35;;
25439;SDS011;13365;52.208;5.488;2023-02-22T09:52:21;17.55;;;7.88;;
25439;SDS011;13365;52.208;5.488;2023-02-22T09:57:49;17.25;;;8.45;;
25439;SDS011;13365;52.208;5.488;2023-02-22T10:00:20;18.20;;;8.38;;
25439;SDS011;13365;52.208;5.488;2023-02-22T10:05:16;15.65;;;7.78;;
25439;SDS011;13365;52.208;5.488;2023-02-22T10:07:53;18.13;;;8.93;;
25439;SDS011;13365;52.208;5.488;2023-02-22T10:10:23;20.48;;;9.23;;
25439;SDS011;13365;52.208;5.488;2023-02-22T10:13:04;16.27;;;8.25;;
25439;SDS011;13365;52.208;5.488;2023-02-22T10:15:41;16.95;;;8.15;;
25439;SDS011;13365;52.208;5.488;2023-02-22T10:18:16;20.38;;;8.15;;
25439;SDS011;13365;52.208;5.488;2023-02-22T10:21:03;14.13;;;7.50;;
25439;SDS011;13365;52.208;5.488;2023-02-22T10:26:34;18.98;;;8.77;;
25439;SDS011;13365;52.208;5.488;2023-02-22T10:31:59;16.08;;;7.22;;
25439;SDS011;13365;52.208;5.488;2023-02-22T10:34:28;16.05;;;7.13;;
25439;SDS011;13365;52.208;5.488;2023-02-22T10:37:22;19.48;;;8.13;;
25439;SDS011;13365;52.208;5.488;2023-02-22T10:39:52;17.83;;;8.32;;
25439;SDS011;13365;52.208;5.488;2023-02-22T10:42:37;15.48;;;7.78;;
25439;SDS011;13365;52.208;5.488;2023-02-22T10:45:03;15.98;;;8.50;;
25439;SDS011;13365;52.208;5.488;2023-02-22T10:47:37;17.15;;;7.78;;
25439;SDS011;13365;52.208;5.488;2023-02-22T10:50:03;18.92;;;8.50;;
25439;SDS011;13365;52.208;5.488;2023-02-22T10:52:30;17.38;;;8.57;;
25439;SDS011;13365;52.208;5.488;2023-02-22T10:55:01;14.95;;;7.53;;
25439;SDS011;13365;52.208;5.488;2023-02-22T10:57:31;15.23;;;6.78;;
25439;SDS011;13365;52.208;5.488;2023-02-22T11:00:12;17.33;;;7.82;;
25439;SDS011;13365;52.208;5.488;2023-02-22T11:02:50;13.38;;;6.40;;
25439;SDS011;13365;52.208;5.488;2023-02-22T11:05:28;18.55;;;8.77;;
25439;SDS011;13365;52.208;5.488;2023-02-22T11:10:39;18.40;;;8.15;;
25439;SDS011;13365;52.208;5.488;2023-02-22T11:13:18;18.60;;;7.80;;
25439;SDS011;13365;52.208;5.488;2023-02-22T11:16:01;18.60;;;7.95;;
25439;SDS011;13365;52.208;5.488;2023-02-22T11:18:49;18.25;;;8.38;;
25439;SDS011;13365;52.208;5.488;2023-02-22T11:21:23;17.75;;;8.10;;
25439;SDS011;13365;52.208;5.488;2023-02-22T11:23:48;16.58;;;7.68;;
25439;SDS011;13365;52.208;5.488;2023-02-22T11:26:25;21.73;;;8.88;;
25439;SDS011;13365;52.208;5.488;2023-02-22T11:28:50;16.35;;;8.25;;
25439;SDS011;13365;52.208;5.488;2023-02-22T11:31:21;17.02;;;6.90;;
25439;SDS011;13365;52.208;5.488;2023-02-22T11:33:50;21.63;;;8.25;;
25439;SDS011;13365;52.208;5.488;2023-02-22T11:36:29;15.95;;;6.95;;
25439;SDS011;13365;52.208;5.488;2023-02-22T11:38:55;18.25;;;8.43;;
25439;SDS011;13365;52.208;5.488;2023-02-22T11:41:27;21.48;;;8.52;;
25439;SDS011;13365;52.208;5.488;2023-02-22T11:44:11;24.98;;;8.35;;
25439;SDS011;13365;52.208;5.488;2023-02-22T11:46:38;21.58;;;7.70;;
25439;SDS011;13365;52.208;5.488;2023-02-22T11:49:05;17.63;;;7.10;;
25439;SDS011;13365;52.208;5.488;2023-02-22T12:08:31;17.63;;;7.95;;
25439;SDS011;13365;52.208;5.488;2023-02-22T12:11:29;16.27;;;6.82;;
25439;SDS011;13365;52.208;5.488;2023-02-22T12:19:30;19.67;;;7.68;;
25439;SDS011;13365;52.208;5.488;2023-02-22T12:22:02;16.75;;;7.00;;
25439;SDS011;13365;52.208;5.488;2023-02-22T12:24:55;18.30;;;7.53;;
25439;SDS011;13365;52.208;5.488;2023-02-22T12:27:30;16.95;;;7.57;;
25439;SDS011;13365;52.208;5.488;2023-02-22T12:30:04;16.80;;;7.30;;
25439;SDS011;13365;52.208;5.488;2023-02-22T12:35:21;13.70;;;6.82;;
25439;SDS011;13365;52.208;5.488;2023-02-22T12:40:36;16.17;;;6.75;;
25439;SDS011;13365;52.208;5.488;2023-02-22T12:43:30;16.25;;;7.57;;
25439;SDS011;13365;52.208;5.488;2023-02-22T12:46:11;20.38;;;7.40;;
25439;SDS011;13365;52.208;5.488;2023-02-22T12:48:48;15.05;;;7.13;;
25439;SDS011;13365;52.208;5.488;2023-02-22T12:51:38;21.98;;;7.82;;
25439;SDS011;13365;52.208;5.488;2023-02-22T12:57:33;17.48;;;7.32;;
25439;SDS011;13365;52.208;5.488;2023-02-22T13:02:43;17.08;;;7.32;;
25439;SDS011;13365;52.208;5.488;2023-02-22T13:05:14;18.33;;;8.50;;
25439;SDS011;13365;52.208;5.488;2023-02-22T13:07:58;18.95;;;7.32;;
25439;SDS011;13365;52.208;5.488;2023-02-22T13:10:56;22.92;;;7.05;;
25439;SDS011;13365;52.208;5.488;2023-02-22T13:24:48;16.13;;;8.43;;
25439;SDS011;13365;52.208;5.488;2023-02-22T13:27:18;15.35;;;6.25;;
25439;SDS011;13365;52.208;5.488;2023-02-22T13:29:58;17.23;;;8.23;;
25439;SDS011;13365;52.208;5.488;2023-02-22T13:32:48;18.05;;;7.38;;
25439;SDS011;13365;52.208;5.488;2023-02-22T13:43:18;16.20;;;7.15;;
25439;SDS011;13365;52.208;5.488;2023-02-22T13:52:13;19.50;;;8.50;;
25439;SDS011;13365;52.208;5.488;2023-02-22T13:54:48;16.30;;;8.13;;
25439;SDS011;13365;52.208;5.488;2023-02-22T13:57:47;16.38;;;6.65;;
25439;SDS011;13365;52.208;5.488;2023-02-22T14:10:55;18.75;;;7.18;;
25439;SDS011;13365;52.208;5.488;2023-02-22T14:13:31;15.60;;;6.65;;
25439;SDS011;13365;52.208;5.488;2023-02-22T14:16:25;16.63;;;6.97;;
25439;SDS011;13365;52.208;5.488;2023-02-22T14:21:37;16.67;;;7.63;;
25439;SDS011;13365;52.208;5.488;2023-02-22T14:24:25;14.27;;;6.32;;
25439;SDS011;13365;52.208;5.488;2023-02-22T14:27:06;16.08;;;8.05;;
25439;SDS011;13365;52.208;5.488;2023-02-22T14:29:32;14.15;;;7.03;;
25439;SDS011;13365;52.208;5.488;2023-02-22T14:32:00;15.68;;;7.18;;
25439;SDS011;13365;52.208;5.488;2023-02-22T14:34:39;13.35;;;7.35;;
25439;SDS011;13365;52.208;5.488;2023-02-22T14:37:25;16.15;;;7.68;;
25439;SDS011;13365;52.208;5.488;2023-02-22T14:40:05;13.60;;;6.18;;
25439;SDS011;13365;52.208;5.488;2023-02-22T14:42:44;15.30;;;7.07;;
25439;SDS011;13365;52.208;5.488;2023-02-22T14:45:25;15.07;;;7.07;;
25439;SDS011;13365;52.208;5.488;2023-02-22T14:47:58;12.95;;;6.32;;
25439;SDS011;13365;52.208;5.488;2023-02-22T14:58:33;13.43;;;6.40;;
25439;SDS011;13365;52.208;5.488;2023-02-22T15:03:50;14.07;;;6.78;;
25439;SDS011;13365;52.208;5.488;2023-02-22T15:06:23;15.77;;;7.50;;
25439;SDS011;13365;52.208;5.488;2023-02-22T15:09:11;15.75;;;7.10;;
25439;SDS011;13365;52.208;5.488;2023-02-22T15:11:47;13.05;;;6.28;;
25439;SDS011;13365;52.208;5.488;2023-02-22T15:14:28;12.88;;;6.97;;
25439;SDS011;13365;52.208;5.488;2023-02-22T15:17:02;16.63;;;7.13;;
25439;SDS011;13365;52.208;5.488;2023-02-22T15:19:37;15.32;;;6.75;;
25439;SDS011;13365;52.208;5.488;2023-02-22T15:22:05;13.80;;;6.85;;
25439;SDS011;13365;52.208;5.488;2023-02-22T15:25:06;17.52;;;6.75;;
25439;SDS011;13365;52.208;5.488;2023-02-22T15:27:33;14.75;;;7.50;;
25439;SDS011;13365;52.208;5.488;2023-02-22T15:30:03;14.60;;;7.93;;
25439;SDS011;13365;52.208;5.488;2023-02-22T15:32:40;12.95;;;6.30;;
25439;SDS011;13365;52.208;5.488;2023-02-22T15:35:13;13.70;;;6.35;;
25439;SDS011;13365;52.208;5.488;2023-02-22T15:37:44;13.57;;;7.28;;
25439;SDS011;13365;52.208;5.488;2023-02-22T15:40:16;11.45;;;6.35;;
25439;SDS011;13365;52.208;5.488;2023-02-22T15:42:44;13.32;;;6.15;;
25439;SDS011;13365;52.208;5.488;2023-02-22T15:45:18;15.75;;;7.50;;
25439;SDS011;13365;52.208;5.488;2023-02-22T15:47:45;14.52;;;7.63;;
25439;SDS011;13365;52.208;5.488;2023-02-22T15:53:20;11.70;;;5.75;;
25439;SDS011;13365;52.208;5.488;2023-02-22T15:55:53;10.77;;;6.10;;
25439;SDS011;13365;52.208;5.488;2023-02-22T15:58:22;16.15;;;6.90;;
25439;SDS011;13365;52.208;5.488;2023-02-22T16:01:02;13.43;;;6.45;;
25439;SDS011;13365;52.208;5.488;2023-02-22T16:04:14;14.60;;;7.20;;
25439;SDS011;13365;52.208;5.488;2023-02-22T16:09:07;11.25;;;5.97;;
25439;SDS011;13365;52.208;5.488;2023-02-22T16:11:38;14.50;;;7.07;;
25439;SDS011;13365;52.208;5.488;2023-02-22T16:14:27;13.30;;;6.05;;
25439;SDS011;13365;52.208;5.488;2023-02-22T16:19:53;12.18;;;7.07;;
25439;SDS011;13365;52.208;5.488;2023-02-22T16:24:53;13.63;;;6.72;;
25439;SDS011;13365;52.208;5.488;2023-02-22T16:27:39;11.75;;;6.45;;
25439;SDS011;13365;52.208;5.488;2023-02-22T16:32:46;12.23;;;6.38;;
25439;SDS011;13365;52.208;5.488;2023-02-22T16:35:12;12.65;;;6.13;;
25439;SDS011;13365;52.208;5.488;2023-02-22T16:37:54;16.02;;;6.53;;
25439;SDS011;13365;52.208;5.488;2023-02-22T16:40:32;14.50;;;6.63;;
25439;SDS011;13365;52.208;5.488;2023-02-22T16:43:02;12.20;;;6.35;;
25439;SDS011;13365;52.208;5.488;2023-02-22T16:45:32;16.38;;;6.90;;
25439;SDS011;13365;52.208;5.488;2023-02-22T16:47:58;11.32;;;7.00;;
25439;SDS011;13365;52.208;5.488;2023-02-22T16:50:24;12.27;;;7.20;;
25439;SDS011;13365;52.208;5.488;2023-02-22T16:52:51;20.75;;;7.30;;
25439;SDS011;13365;52.208;5.488;2023-02-22T16:55:19;16.65;;;7.18;;
25439;SDS011;13365;52.208;5.488;2023-02-22T16:57:46;14.13;;;6.55;;
25439;SDS011;13365;52.208;5.488;2023-02-22T17:00:15;11.50;;;7.35;;
25439;SDS011;13365;52.208;5.488;2023-02-22T17:02:46;15.07;;;8.18;;
25439;SDS011;13365;52.208;5.488;2023-02-22T17:05:13;15.38;;;7.68;;
25439;SDS011;13365;52.208;5.488;2023-02-22T17:07:40;17.95;;;7.40;;
25439;SDS011;13365;52.208;5.488;2023-02-22T17:10:06;18.80;;;8.85;;
25439;SDS011;13365;52.208;5.488;2023-02-22T17:12:39;19.33;;;9.20;;
25439;SDS011;13365;52.208;5.488;2023-02-22T17:15:09;19.35;;;8.27;;
25439;SDS011;13365;52.208;5.488;2023-02-22T17:18:05;13.57;;;8.65;;
25439;SDS011;13365;52.208;5.488;2023-02-22T17:20:38;19.65;;;9.05;;